createdAt,value
2017-12-24T00:00:59.626Z,9.90
2017-12-24T00:03:28.493Z,9.80
2017-12-24T00:05:58.128Z,9.80
2017-12-24T00:08:26.990Z,9.70
2017-12-24T00:10:56.582Z,9.80
2017-12-24T00:13:26.289Z,9.80
2017-12-24T00:15:55.132Z,9.80
2017-12-24T00:18:23.995Z,9.90
2017-12-24T00:20:53.596Z,9.80
2017-12-24T00:23:23.222Z,9.80
2017-12-24T00:25:52.066Z,9.80
2017-12-24T00:28:20.926Z,9.80
2017-12-24T00:30:49.782Z,9.80
2017-12-24T00:33:19.401Z,9.80
2017-12-24T00:35:48.242Z,9.80
2017-12-24T00:38:17.369Z,9.80
2017-12-24T00:40:46.946Z,9.70
2017-12-24T00:43:15.785Z,9.70
2017-12-24T00:45:44.636Z,9.80
2017-12-24T00:48:14.410Z,9.80
2017-12-24T00:50:44.056Z,9.70
2017-12-24T00:53:12.886Z,9.70
2017-12-24T00:55:41.733Z,9.70
2017-12-24T00:58:11.343Z,9.70
2017-12-24T01:00:40.219Z,9.70
2017-12-24T01:03:09.855Z,9.70
2017-12-24T01:05:38.718Z,9.70
2017-12-24T01:08:07.579Z,9.70
2017-12-24T01:10:37.186Z,9.70
2017-12-24T01:13:06.803Z,9.70
2017-12-24T01:15:36.406Z,9.70
2017-12-24T01:18:06.037Z,9.70
2017-12-24T01:20:34.885Z,9.70
2017-12-24T01:23:05.149Z,9.70
2017-12-24T01:25:33.988Z,9.60
2017-12-24T01:28:03.623Z,9.70
2017-12-24T01:30:33.260Z,9.80
2017-12-24T01:33:02.119Z,9.70
2017-12-24T01:35:31.738Z,9.70
2017-12-24T01:38:00.641Z,9.60
2017-12-24T01:40:29.478Z,9.70
2017-12-24T01:42:58.329Z,9.70
2017-12-24T01:45:27.178Z,9.60
2017-12-24T01:47:56.023Z,9.60
2017-12-24T01:50:25.650Z,9.70
2017-12-24T01:52:54.511Z,9.60
2017-12-24T01:55:23.338Z,9.70
2017-12-24T01:57:52.182Z,9.70
2017-12-24T02:00:21.906Z,9.70
2017-12-24T02:02:51.518Z,9.70
2017-12-24T02:05:21.121Z,9.70
2017-12-24T02:07:50.722Z,9.70
2017-12-24T02:10:20.350Z,9.70
2017-12-24T02:12:49.200Z,9.70
2017-12-24T02:15:18.038Z,9.70
2017-12-24T02:17:46.913Z,9.70
2017-12-24T02:20:15.746Z,9.70
2017-12-24T02:22:44.602Z,9.70
2017-12-24T02:25:13.471Z,9.70
2017-12-24T02:27:42.537Z,9.70
2017-12-24T02:30:11.394Z,9.70
2017-12-24T02:32:40.218Z,9.70
2017-12-24T02:35:09.078Z,9.70
2017-12-24T02:37:37.955Z,9.70
2017-12-24T02:40:07.551Z,9.70
2017-12-24T02:42:37.150Z,9.70
2017-12-24T02:45:06.114Z,9.60
2017-12-24T02:47:34.959Z,9.70
2017-12-24T02:50:03.841Z,9.60
2017-12-24T02:52:33.426Z,9.60
2017-12-24T02:55:03.059Z,9.60
2017-12-24T02:57:31.898Z,9.60
2017-12-24T03:00:00.740Z,9.50
2017-12-24T03:02:29.593Z,9.50
2017-12-24T03:04:59.210Z,9.60
2017-12-24T03:07:28.823Z,9.60
2017-12-24T03:09:57.682Z,9.60
2017-12-24T03:12:26.518Z,9.60
2017-12-24T03:14:55.365Z,9.60
2017-12-24T03:17:24.193Z,9.50
2017-12-24T03:19:53.054Z,9.50
2017-12-24T03:22:22.679Z,9.50
2017-12-24T03:24:52.278Z,9.50
2017-12-24T03:27:21.906Z,9.60
2017-12-24T03:29:50.725Z,9.50
2017-12-24T03:32:19.587Z,9.60
2017-12-24T03:34:48.430Z,9.50
2017-12-24T03:37:17.272Z,9.40
2017-12-24T03:39:46.131Z,9.50
2017-12-24T03:42:14.990Z,9.50
2017-12-24T03:44:43.826Z,9.60
2017-12-24T03:47:12.682Z,9.50
2017-12-24T03:49:41.523Z,9.50
2017-12-24T03:52:10.547Z,9.60
2017-12-24T03:54:39.389Z,9.60
2017-12-24T03:57:09.127Z,9.60
2017-12-24T03:59:38.760Z,9.60
2017-12-24T04:02:07.574Z,9.60
2017-12-24T04:04:36.420Z,9.70
2017-12-24T04:07:06.020Z,9.60
2017-12-24T04:09:35.648Z,9.60
2017-12-24T04:12:05.262Z,9.60
2017-12-24T04:14:34.098Z,9.50
2017-12-24T04:17:02.932Z,9.50
2017-12-24T04:19:31.832Z,9.50
2017-12-24T04:22:00.715Z,9.60
2017-12-24T04:24:29.555Z,9.60
2017-12-24T04:26:58.387Z,9.60
2017-12-24T04:29:27.210Z,9.50
2017-12-24T04:31:56.074Z,9.50
2017-12-24T04:34:24.911Z,9.50
2017-12-24T04:36:53.758Z,9.50
2017-12-24T04:39:22.598Z,9.50
2017-12-24T04:41:51.430Z,9.60
2017-12-24T04:44:20.298Z,9.60
2017-12-24T04:46:49.146Z,9.50
2017-12-24T04:49:17.990Z,9.60
2017-12-24T04:51:46.837Z,9.60
2017-12-24T04:54:16.446Z,9.60
2017-12-24T04:56:46.054Z,9.60
2017-12-24T04:59:15.651Z,9.60
2017-12-24T05:01:44.638Z,9.60
2017-12-24T05:04:13.494Z,9.70
2017-12-24T05:06:42.306Z,9.60
2017-12-24T05:09:11.147Z,9.50
2017-12-24T05:11:39.994Z,9.50
2017-12-24T05:14:08.843Z,9.50
2017-12-24T05:16:37.689Z,9.50
2017-12-24T05:19:07.269Z,9.60
2017-12-24T05:21:36.106Z,9.50
2017-12-24T05:24:04.947Z,9.50
2017-12-24T05:26:33.782Z,9.50
2017-12-24T05:29:03.390Z,9.50
2017-12-24T05:31:32.231Z,9.50
2017-12-24T05:34:01.080Z,9.50
2017-12-24T05:39:05.104Z,9.40
2017-12-24T05:41:33.980Z,9.50
2017-12-24T05:44:03.594Z,9.30
2017-12-24T05:46:32.434Z,9.30
2017-12-24T05:49:01.979Z,9.40
2017-12-24T05:51:31.585Z,9.30
2017-12-24T05:54:00.390Z,9.20
2017-12-24T05:56:29.285Z,9.30
2017-12-24T05:58:58.090Z,9.30
2017-12-24T06:01:26.914Z,9.30
2017-12-24T06:03:55.784Z,9.30
2017-12-24T06:06:24.593Z,9.30
2017-12-24T06:08:53.401Z,9.30
2017-12-24T06:11:22.229Z,9.30
2017-12-24T06:13:51.075Z,9.30
2017-12-24T06:16:20.130Z,9.30
2017-12-24T06:18:48.979Z,9.30
2017-12-24T06:21:17.784Z,9.40
2017-12-24T06:23:46.618Z,9.40
2017-12-24T06:26:15.450Z,9.30
2017-12-24T06:28:44.290Z,9.40
2017-12-24T06:31:13.121Z,9.40
2017-12-24T06:33:41.959Z,9.50
2017-12-24T06:36:10.795Z,9.50
2017-12-24T06:38:39.635Z,9.50
2017-12-24T06:41:08.471Z,9.50
2017-12-24T06:43:37.297Z,9.40
2017-12-24T06:46:06.114Z,9.40
2017-12-24T06:48:34.926Z,9.40
2017-12-24T06:51:03.784Z,9.40
2017-12-24T06:53:32.619Z,9.40
2017-12-24T06:56:02.986Z,9.30
2017-12-24T06:58:31.790Z,9.30
2017-12-24T07:01:00.633Z,9.30
2017-12-24T07:03:30.250Z,9.40
2017-12-24T07:05:59.850Z,9.40
2017-12-24T07:08:29.484Z,9.40
2017-12-24T07:10:58.318Z,9.40
2017-12-24T07:13:27.275Z,9.40
2017-12-24T07:15:56.075Z,9.40
2017-12-24T07:18:24.946Z,9.40
2017-12-24T07:20:54.531Z,9.50
2017-12-24T07:23:24.144Z,9.50
2017-12-24T07:25:53.054Z,9.40
2017-12-24T07:28:21.878Z,9.40
2017-12-24T07:30:50.708Z,9.50
2017-12-24T07:33:20.325Z,9.40
2017-12-24T07:35:49.146Z,9.40
2017-12-24T07:38:17.991Z,9.30
2017-12-24T07:40:47.589Z,9.30
2017-12-24T07:43:16.451Z,9.30
2017-12-24T07:45:45.261Z,9.30
2017-12-24T07:48:14.091Z,9.40
2017-12-24T07:50:42.906Z,9.30
2017-12-24T07:53:12.523Z,9.30
2017-12-24T07:55:41.382Z,9.30
2017-12-24T07:58:10.207Z,9.30
2017-12-24T08:00:39.062Z,9.30
2017-12-24T08:03:07.884Z,9.30
2017-12-24T08:05:36.729Z,9.30
2017-12-24T08:08:06.742Z,9.30
2017-12-24T08:10:35.907Z,9.30
2017-12-24T08:13:04.740Z,9.30
2017-12-24T08:15:33.567Z,9.20
2017-12-24T08:18:02.509Z,9.20
2017-12-24T08:20:31.347Z,9.30
2017-12-24T08:23:01.001Z,9.20
2017-12-24T08:25:29.824Z,9.20
2017-12-24T08:27:59.569Z,9.20
2017-12-24T08:30:31.622Z,9.20
2017-12-24T08:33:00.455Z,9.20
2017-12-24T08:35:29.268Z,9.20
2017-12-24T08:37:58.875Z,9.40
2017-12-24T08:40:28.464Z,9.40
2017-12-24T08:42:57.337Z,9.40
2017-12-24T08:45:26.327Z,9.40
2017-12-24T08:47:55.168Z,9.30
2017-12-24T08:50:24.007Z,9.30
2017-12-24T08:52:52.835Z,9.30
2017-12-24T08:55:21.658Z,9.30
2017-12-24T08:57:51.338Z,9.40
2017-12-24T09:00:20.147Z,9.30
2017-12-24T09:02:49.773Z,9.40
2017-12-24T09:05:19.383Z,9.50
2017-12-24T09:07:48.980Z,9.50
2017-12-24T09:10:18.589Z,9.40
2017-12-24T09:12:48.182Z,9.40
2017-12-24T09:15:17.031Z,9.30
2017-12-24T09:17:45.856Z,9.40
2017-12-24T09:20:15.466Z,9.40
2017-12-24T09:22:44.275Z,9.40
2017-12-24T09:25:13.690Z,9.40
2017-12-24T09:27:42.532Z,9.50
2017-12-24T09:30:11.368Z,9.50
2017-12-24T09:32:40.266Z,9.50
2017-12-24T09:35:09.044Z,9.40
2017-12-24T09:37:37.935Z,9.40
2017-12-24T09:40:07.563Z,9.40
2017-12-24T09:42:36.378Z,9.40
2017-12-24T09:45:05.250Z,9.50
2017-12-24T09:47:34.879Z,9.50
2017-12-24T09:50:03.711Z,9.50
2017-12-24T09:52:32.560Z,9.50
2017-12-24T09:55:01.378Z,9.50
2017-12-24T09:57:30.212Z,9.50
2017-12-24T10:00:00.368Z,9.50
2017-12-24T10:02:29.203Z,9.50
2017-12-24T10:04:58.079Z,9.60
2017-12-24T10:07:27.146Z,9.70
2017-12-24T10:09:56.020Z,9.70
2017-12-24T10:12:24.918Z,9.80
2017-12-24T10:14:53.753Z,9.90
2017-12-24T10:17:22.889Z,9.80
2017-12-24T10:19:51.724Z,9.80
2017-12-24T10:22:20.551Z,9.90
2017-12-24T10:24:50.166Z,9.80
2017-12-24T10:27:19.759Z,9.80
2017-12-24T10:29:49.370Z,9.90
2017-12-24T10:32:19.006Z,9.90
2017-12-24T10:34:47.863Z,9.90
2017-12-24T10:37:16.702Z,9.90
2017-12-24T10:39:45.539Z,9.90
2017-12-24T10:42:15.475Z,9.70
2017-12-24T10:44:44.343Z,9.60
2017-12-24T10:47:13.197Z,9.70
2017-12-24T10:49:41.999Z,9.60
2017-12-24T10:52:10.864Z,9.60
2017-12-24T10:54:39.842Z,9.60
2017-12-24T10:57:09.466Z,9.50
2017-12-24T10:59:38.312Z,9.50
2017-12-24T11:02:07.164Z,9.50
2017-12-24T11:04:36.011Z,9.60
2017-12-24T11:07:05.620Z,9.70
2017-12-24T11:09:35.265Z,9.70
2017-12-24T11:12:04.119Z,9.70
2017-12-24T11:14:33.743Z,9.60
2017-12-24T11:19:37.770Z,9.60
2017-12-24T11:22:06.623Z,9.60
2017-12-24T11:24:35.469Z,9.50
2017-12-24T11:27:04.308Z,9.50
2017-12-24T11:29:33.135Z,9.60
2017-12-24T11:32:01.979Z,9.50
2017-12-24T11:34:31.483Z,9.60
2017-12-24T11:37:00.601Z,9.60
2017-12-24T11:39:30.222Z,9.50
2017-12-24T11:41:59.673Z,9.50
2017-12-24T11:44:28.536Z,9.50
2017-12-24T11:46:57.387Z,9.40
2017-12-24T11:49:26.690Z,9.50
2017-12-24T11:51:56.306Z,9.50
2017-12-24T11:54:25.183Z,9.40
2017-12-24T11:56:54.018Z,9.60
2017-12-24T11:59:22.847Z,9.40
2017-12-24T12:01:51.690Z,9.60
2017-12-24T12:04:21.086Z,9.60
2017-12-24T12:06:49.909Z,9.60
2017-12-24T12:09:18.762Z,9.60
2017-12-24T12:11:47.618Z,9.70
2017-12-24T12:14:16.449Z,9.70
2017-12-24T12:16:45.288Z,9.60
2017-12-24T12:19:14.115Z,9.60
2017-12-24T12:21:43.742Z,9.70
2017-12-24T12:24:12.582Z,9.70
2017-12-24T12:26:41.422Z,9.80
2017-12-24T12:29:10.263Z,9.80
2017-12-24T12:31:39.087Z,9.80
2017-12-24T12:34:07.946Z,9.80
2017-12-24T12:36:37.541Z,9.70
2017-12-24T12:39:06.391Z,9.70
2017-12-24T12:41:35.213Z,9.70
2017-12-24T12:44:04.059Z,9.70
2017-12-24T12:46:32.912Z,9.80
2017-12-24T12:49:01.766Z,9.70
2017-12-24T12:51:30.582Z,9.70
2017-12-24T12:53:59.418Z,9.70
2017-12-24T12:56:28.462Z,9.70
2017-12-24T12:58:57.263Z,9.70
2017-12-24T13:01:26.098Z,9.70
2017-12-24T13:03:54.954Z,9.70
2017-12-24T13:06:24.042Z,9.60
2017-12-24T13:08:52.867Z,9.60
2017-12-24T13:11:21.723Z,9.70
2017-12-24T13:13:50.591Z,9.80
2017-12-24T13:16:19.409Z,9.70
2017-12-24T13:18:49.038Z,9.70
2017-12-24T13:21:17.895Z,9.60
2017-12-24T13:23:46.727Z,9.70
2017-12-24T13:26:15.720Z,9.80
2017-12-24T13:28:45.314Z,9.60
2017-12-24T13:31:14.162Z,9.60
2017-12-24T13:33:42.998Z,9.60
2017-12-24T13:36:11.814Z,9.60
2017-12-24T13:38:40.691Z,9.60
2017-12-24T13:41:09.520Z,9.60
2017-12-24T13:43:38.362Z,9.70
2017-12-24T13:46:07.204Z,9.60
2017-12-24T13:48:36.794Z,9.70
2017-12-24T13:51:06.406Z,9.60
2017-12-24T13:53:36.050Z,9.60
2017-12-24T13:56:05.819Z,9.60
2017-12-24T13:58:34.645Z,9.60
2017-12-24T14:01:03.473Z,9.60
2017-12-24T14:03:32.333Z,9.60
2017-12-24T14:06:01.926Z,9.60
2017-12-24T14:08:31.526Z,9.70
2017-12-24T14:11:01.111Z,9.80
2017-12-24T14:13:30.715Z,9.80
2017-12-24T14:15:59.554Z,9.80
2017-12-24T14:18:28.384Z,9.80
2017-12-24T14:20:57.228Z,9.80
2017-12-24T14:23:26.073Z,9.70
2017-12-24T14:25:55.695Z,9.60
2017-12-24T14:28:25.373Z,9.70
2017-12-24T14:30:54.209Z,9.60
2017-12-24T14:33:23.053Z,9.70
2017-12-24T14:35:51.910Z,9.70
2017-12-24T14:38:20.794Z,9.60
2017-12-24T14:40:49.627Z,9.60
2017-12-24T14:43:18.482Z,9.60
2017-12-24T14:45:47.322Z,9.60
2017-12-24T14:48:16.159Z,9.60
2017-12-24T14:50:45.746Z,9.60
2017-12-24T14:53:14.581Z,9.60
2017-12-24T14:55:44.194Z,9.70
2017-12-24T14:58:13.794Z,9.70
2017-12-24T15:00:42.617Z,9.70
2017-12-24T15:03:11.477Z,9.70
2017-12-24T15:05:40.286Z,9.70
2017-12-24T15:08:09.151Z,9.70
2017-12-24T15:10:37.996Z,9.60
2017-12-24T15:13:08.354Z,9.50
2017-12-24T15:15:37.180Z,9.50
2017-12-24T15:18:06.004Z,9.50
2017-12-24T15:20:35.654Z,9.50
2017-12-24T15:23:04.489Z,9.50
2017-12-24T15:25:33.362Z,9.50
2017-12-24T15:28:02.202Z,9.50
2017-12-24T15:30:31.811Z,9.50
2017-12-24T15:33:01.419Z,9.60
2017-12-24T15:35:31.016Z,9.60
2017-12-24T15:38:00.619Z,9.60
2017-12-24T15:40:30.228Z,9.60
2017-12-24T15:42:59.861Z,9.60
2017-12-24T15:45:29.450Z,9.60
2017-12-24T15:47:59.055Z,9.60
2017-12-24T15:50:27.891Z,9.50
2017-12-24T15:52:56.730Z,9.60
2017-12-24T15:55:25.583Z,9.60
2017-12-24T15:57:54.427Z,9.60
2017-12-24T16:00:23.266Z,9.60
2017-12-24T16:02:52.878Z,9.60
2017-12-24T16:05:22.592Z,9.70
2017-12-24T16:07:51.411Z,9.60
2017-12-24T16:10:20.280Z,9.70
2017-12-24T16:12:49.170Z,9.70
2017-12-24T16:15:18.761Z,9.60
2017-12-24T16:17:48.342Z,9.60
2017-12-24T16:20:18.694Z,9.60
2017-12-24T16:22:48.282Z,9.60
2017-12-24T16:25:17.131Z,9.50
2017-12-24T16:27:45.954Z,9.60
2017-12-24T16:30:14.811Z,9.50
2017-12-24T16:32:43.636Z,9.60
2017-12-24T16:35:12.519Z,9.60
2017-12-24T16:37:42.872Z,9.60
2017-12-24T16:40:12.471Z,9.70
2017-12-24T16:42:42.079Z,9.60
2017-12-24T16:45:10.925Z,9.50
2017-12-24T16:47:39.730Z,9.60
2017-12-24T16:50:08.568Z,9.60
2017-12-24T16:52:39.660Z,9.60
2017-12-24T16:55:09.642Z,9.60
2017-12-24T16:57:38.510Z,9.60
2017-12-24T17:00:08.127Z,9.60
2017-12-24T17:02:37.731Z,9.60
2017-12-24T17:05:07.320Z,9.50
2017-12-24T17:07:36.142Z,9.50
2017-12-24T17:10:05.755Z,9.50
2017-12-24T17:12:34.592Z,9.50
2017-12-24T17:15:03.433Z,9.60
2017-12-24T17:17:32.303Z,9.70
2017-12-24T17:20:01.890Z,9.60
2017-12-24T17:22:30.727Z,9.60
2017-12-24T17:24:59.582Z,9.70
2017-12-24T17:27:29.198Z,9.60
2017-12-24T17:29:58.795Z,9.60
2017-12-24T17:32:28.189Z,9.60
2017-12-24T17:34:57.162Z,9.60
2017-12-24T17:37:26.011Z,9.60
2017-12-24T17:39:54.854Z,9.60
2017-12-24T17:42:23.683Z,9.60
2017-12-24T17:44:52.558Z,9.60
2017-12-24T17:47:22.230Z,9.60
2017-12-24T17:49:51.274Z,9.60
2017-12-24T17:52:20.343Z,9.60
2017-12-24T17:54:49.161Z,9.60
2017-12-24T17:57:18.552Z,9.50
2017-12-24T17:59:47.400Z,9.60
2017-12-24T18:02:16.221Z,9.60
2017-12-24T18:04:46.596Z,9.50
2017-12-24T18:07:15.436Z,9.50
2017-12-24T18:09:44.284Z,9.50
2017-12-24T18:12:13.142Z,9.50
2017-12-24T18:14:42.718Z,9.50
2017-12-24T18:17:11.574Z,9.50
2017-12-24T18:19:40.435Z,9.60
2017-12-24T18:22:09.331Z,9.70
2017-12-24T18:24:38.938Z,9.60
2017-12-24T18:27:07.886Z,9.60
2017-12-24T18:29:36.733Z,9.60
2017-12-24T18:32:05.584Z,9.60
2017-12-24T18:34:34.430Z,9.60
2017-12-24T18:37:03.305Z,9.60
2017-12-24T18:39:32.145Z,9.60
2017-12-24T18:42:01.028Z,9.60
2017-12-24T18:44:29.837Z,9.60
2017-12-24T18:46:59.495Z,9.70
2017-12-24T18:49:28.370Z,9.60
2017-12-24T18:51:57.221Z,9.70
2017-12-24T18:54:26.062Z,9.70
2017-12-24T18:56:54.912Z,9.70
2017-12-24T18:59:23.781Z,9.70
2017-12-24T19:01:52.674Z,9.70
2017-12-24T19:04:21.486Z,9.60
2017-12-24T19:06:51.123Z,9.50
2017-12-24T19:09:19.974Z,9.50
2017-12-24T19:11:50.311Z,9.50
2017-12-24T19:14:19.918Z,9.50
2017-12-24T19:16:49.835Z,9.50
2017-12-24T19:19:18.744Z,9.50
2017-12-24T19:21:48.320Z,9.50
2017-12-24T19:24:17.212Z,9.60
2017-12-24T19:26:46.877Z,9.60
2017-12-24T19:29:15.721Z,9.60
2017-12-24T19:31:45.374Z,9.60
2017-12-24T19:34:15.158Z,9.50
2017-12-24T19:36:44.775Z,9.50
2017-12-24T19:39:13.639Z,9.50
2017-12-24T19:41:43.922Z,9.60
2017-12-24T19:44:12.798Z,9.60
2017-12-24T19:46:41.657Z,9.60
2017-12-24T19:49:12.064Z,9.60
2017-12-24T19:51:40.893Z,9.50
2017-12-24T19:54:10.497Z,9.60
2017-12-24T19:56:40.117Z,9.60
2017-12-24T19:59:09.925Z,9.60
2017-12-24T20:01:39.543Z,9.60
2017-12-24T20:04:08.396Z,9.60
2017-12-24T20:06:37.251Z,9.50
2017-12-24T20:09:07.143Z,9.40
2017-12-24T20:11:35.968Z,9.40
2017-12-24T20:14:04.920Z,9.50
2017-12-24T20:16:33.755Z,9.50
2017-12-24T20:19:02.934Z,9.40
2017-12-24T20:21:31.746Z,9.40
2017-12-24T20:24:00.613Z,9.40
2017-12-24T20:26:29.431Z,9.30
2017-12-24T20:28:58.291Z,9.30
2017-12-24T20:31:27.109Z,9.30
2017-12-24T20:33:55.950Z,9.30
2017-12-24T20:36:25.321Z,9.30
2017-12-24T20:38:54.927Z,9.30
2017-12-24T20:41:24.888Z,9.30
2017-12-24T20:43:53.752Z,9.30
2017-12-24T20:46:24.070Z,9.30
2017-12-24T20:48:53.692Z,9.20
2017-12-24T20:51:22.530Z,9.10
2017-12-24T20:53:51.434Z,9.20
2017-12-24T20:56:21.798Z,9.20
2017-12-24T20:58:50.825Z,9.20
2017-12-24T21:01:19.646Z,9.20
2017-12-24T21:03:48.485Z,9.30
2017-12-24T21:06:17.349Z,9.30
2017-12-24T21:08:46.945Z,9.30
2017-12-24T21:11:16.543Z,9.30
2017-12-24T21:13:45.371Z,9.30
2017-12-24T21:16:14.219Z,9.40
2017-12-24T21:18:44.733Z,9.40
2017-12-24T21:21:13.570Z,9.40
2017-12-24T21:23:42.412Z,9.30
2017-12-24T21:26:11.971Z,9.30
2017-12-24T21:28:40.804Z,9.30
2017-12-24T21:31:09.646Z,9.40
2017-12-24T21:33:39.413Z,9.50
2017-12-24T21:36:08.275Z,9.40
2017-12-24T21:38:37.108Z,9.40
2017-12-24T21:41:05.926Z,9.40
2017-12-24T21:43:34.758Z,9.40
2017-12-24T21:46:03.598Z,9.40
2017-12-24T21:48:32.429Z,9.30
2017-12-24T21:51:01.286Z,9.30
2017-12-24T21:53:30.204Z,9.30
2017-12-24T21:55:59.029Z,9.30
2017-12-24T21:58:28.662Z,9.30
2017-12-24T22:00:57.473Z,9.20
2017-12-24T22:03:26.402Z,9.40
2017-12-24T22:05:55.276Z,9.40
2017-12-24T22:08:24.554Z,9.30
2017-12-24T22:10:53.732Z,9.20
2017-12-24T22:13:22.718Z,9.20
2017-12-24T22:15:52.387Z,9.30
2017-12-24T22:18:21.222Z,9.30
2017-12-24T22:20:50.085Z,9.30
2017-12-24T22:23:19.687Z,9.30
2017-12-24T22:25:49.298Z,9.30
2017-12-24T22:28:18.905Z,9.30
2017-12-24T22:30:48.506Z,9.40
2017-12-24T22:33:18.117Z,9.30
2017-12-24T22:35:47.807Z,9.30
2017-12-24T22:38:16.648Z,9.20
2017-12-24T22:40:45.491Z,9.20
2017-12-24T22:43:14.323Z,9.20
2017-12-24T22:45:43.159Z,9.20
2017-12-24T22:48:12.662Z,9.30
2017-12-24T22:50:41.500Z,9.30
2017-12-24T22:53:11.114Z,9.40
2017-12-24T22:55:39.955Z,9.30
2017-12-24T22:58:08.838Z,9.40
2017-12-24T23:00:37.683Z,9.40
2017-12-24T23:03:06.538Z,9.40
2017-12-24T23:05:36.140Z,9.40
2017-12-24T23:08:05.012Z,9.30
2017-12-24T23:10:33.838Z,9.30
2017-12-24T23:13:03.423Z,9.30
2017-12-24T23:15:32.266Z,9.30
2017-12-24T23:18:01.830Z,9.30
2017-12-24T23:20:31.430Z,9.30
2017-12-24T23:23:00.327Z,9.30
2017-12-24T23:25:29.149Z,9.30
2017-12-24T23:27:57.983Z,9.30
2017-12-24T23:30:26.826Z,9.30
2017-12-24T23:32:55.660Z,9.30
2017-12-24T23:35:24.498Z,9.20
2017-12-24T23:37:53.412Z,9.20
2017-12-24T23:40:22.243Z,9.20
2017-12-24T23:42:51.092Z,9.20
2017-12-24T23:45:19.926Z,9.30
2017-12-24T23:47:48.753Z,9.20
2017-12-24T23:50:17.604Z,9.10
2017-12-24T23:52:46.422Z,9.00
2017-12-24T23:55:15.256Z,9.00
2017-12-24T23:57:44.146Z,9.10
